Time;durP1;ratioP1;P1;durP2;ratioP2;P2;SDS_P1;SDS_P2;PMS_P1;PMS_P2;Temp;Humidity;BMP_temperature;BMP_pressure;BME280_temperature;BME280_humidity;BME280_pressure;Samples;Min_cycle;Max_cycle;Signal;HPM_P1;HPM_P2
2021/12/25 00:01:20;;;;;;;10.77;5.40;;;;;;;;;;4952612;28;20035;-60
2021/12/25 00:03:47;;;;;;;10.73;5.20;;;;;;;;;;4952509;29;20479;-60
2021/12/25 00:06:13;;;;;;;9.68;5.10;;;;;;;;;;4952680;29;20031;-59
2021/12/25 00:08:39;;;;;;;9.15;4.70;;;;;;;;;;4952313;29;20122;-60
2021/12/25 00:11:07;;;;;;;11.93;5.22;;;;;;;;;;4952468;29;20119;-60
2021/12/25 00:13:34;;;;;;;10.27;4.97;;;;;;;;;;4952491;29;20051;-60
2021/12/25 00:16:00;;;;;;;9.73;4.95;;;;;;;;;;4952314;29;20043;-60
2021/12/25 00:18:26;;;;;;;11.63;4.60;;;;;;;;;;4952483;28;20039;-60
2021/12/25 00:20:52;;;;;;;12.20;4.80;;;;;;;;;;4955118;29;20054;-60
2021/12/25 00:23:18;;;;;;;10.25;5.10;;;;;;;;;;4956244;29;20038;-60
2021/12/25 00:25:49;;;;;;;9.77;4.97;;;;;;;;;;4956132;28;20079;-60
2021/12/25 00:30:48;;;;;;;9.65;4.93;;;;;;;;;;4955990;29;20437;-60
2021/12/25 00:33:33;;;;;;;8.55;4.20;;;;;;;;;;4955774;28;20082;-60
2021/12/25 00:35:59;;;;;;;9.05;4.70;;;;;;;;;;4955954;29;20019;-60
2021/12/25 00:38:25;;;;;;;8.73;4.28;;;;;;;;;;4956000;29;20063;-60
2021/12/25 00:40:51;;;;;;;7.28;4.13;;;;;;;;;;4955964;29;20031;-60
2021/12/25 00:43:17;;;;;;;8.48;3.83;;;;;;;;;;4955573;29;20035;-60
2021/12/25 00:45:43;;;;;;;7.68;3.90;;;;;;;;;;4938173;29;20178;-60
2021/12/25 00:48:09;;;;;;;8.77;4.15;;;;;;;;;;4955638;29;20039;-60
2021/12/25 00:50:35;;;;;;;7.10;3.97;;;;;;;;;;4957059;29;20027;-60
2021/12/25 00:53:01;;;;;;;9.30;4.15;;;;;;;;;;4955526;29;20035;-60
2021/12/25 00:55:28;;;;;;;8.48;4.13;;;;;;;;;;4955497;29;20132;-59
2021/12/25 00:57:54;;;;;;;7.75;4.00;;;;;;;;;;4955698;28;20038;-58
2021/12/25 01:00:20;;;;;;;7.45;3.97;;;;;;;;;;4955366;29;20047;-60
2021/12/25 01:02:47;;;;;;;8.63;4.45;;;;;;;;;;4955593;29;20087;-60
2021/12/25 01:05:14;;;;;;;9.50;3.97;;;;;;;;;;4955453;29;20035;-61
2021/12/25 01:07:40;;;;;;;11.68;5.30;;;;;;;;;;4955352;29;20023;-61
2021/12/25 01:10:09;;;;;;;14.13;6.30;;;;;;;;;;4955625;28;20082;-60
2021/12/25 01:12:52;;;;;;;11.65;5.50;;;;;;;;;;4955684;29;20015;-61
2021/12/25 01:15:22;;;;;;;12.43;4.32;;;;;;;;;;4955830;29;20125;-61
2021/12/25 01:23:41;;;;;;;8.18;3.95;;;;;;;;;;4955464;29;20748;-61
2021/12/25 01:31:26;;;;;;;8.57;3.88;;;;;;;;;;4876442;29;20044;-60
2021/12/25 01:34:21;;;;;;;8.30;4.00;;;;;;;;;;4876852;29;20136;-60
2021/12/25 01:39:19;;;;;;;10.52;4.30;;;;;;;;;;4877077;29;20033;-61
2021/12/25 01:47:40;;;;;;;7.85;4.10;;;;;;;;;;4876715;29;20041;-61
2021/12/25 01:47:48;;;;;;;9.68;4.95;;;;;;;;;;4876666;29;20506;-61
2021/12/25 01:50:15;;;;;;;;;;;;;;;;;;4877169;29;20120;-62
2021/12/25 01:52:41;;;;;;;10.27;4.65;;;;;;;;;;4877465;29;19915;-60
2021/12/25 01:55:09;;;;;;;8.98;4.25;;;;;;;;;;4876441;29;20033;-59
2021/12/25 01:57:35;;;;;;;8.43;4.07;;;;;;;;;;4876424;29;20057;-60
2021/12/25 02:00:04;;;;;;;9.38;4.20;;;;;;;;;;4876218;29;20112;-60
2021/12/25 02:02:30;;;;;;;10.52;4.35;;;;;;;;;;4876234;29;20040;-60
2021/12/25 02:04:56;;;;;;;8.25;3.72;;;;;;;;;;4889931;29;20506;-60
2021/12/25 02:07:23;;;;;;;9.68;4.07;;;;;;;;;;4953968;29;20035;-60
2021/12/25 02:09:49;;;;;;;9.52;4.40;;;;;;;;;;4954129;29;20023;-60
2021/12/25 02:12:15;;;;;;;7.90;3.83;;;;;;;;;;4953876;29;20027;-60
2021/12/25 02:14:44;;;;;;;9.70;4.10;;;;;;;;;;4953893;29;20031;-60
2021/12/25 02:17:23;;;;;;;7.38;3.33;;;;;;;;;;4954310;29;20078;-60
2021/12/25 02:20:07;;;;;;;6.55;3.38;;;;;;;;;;4954010;29;20068;-59
2021/12/25 02:22:33;;;;;;;8.23;3.20;;;;;;;;;;4953983;28;20174;-60
2021/12/25 02:24:59;;;;;;;7.80;2.92;;;;;;;;;;4954100;29;20031;-59
2021/12/25 02:27:25;;;;;;;8.15;3.10;;;;;;;;;;4953932;29;20479;-59
2021/12/25 02:29:51;;;;;;;7.70;3.33;;;;;;;;;;4953653;28;20028;-59
2021/12/25 02:32:18;;;;;;;5.63;2.90;;;;;;;;;;4953902;29;20024;-59
2021/12/25 02:34:44;;;;;;;7.35;3.50;;;;;;;;;;4953733;29;20090;-59
2021/12/25 02:37:10;;;;;;;6.35;2.65;;;;;;;;;;4953713;29;20106;-59
2021/12/25 02:39:36;;;;;;;5.68;2.40;;;;;;;;;;4953708;29;20058;-59
2021/12/25 02:42:02;;;;;;;5.80;3.30;;;;;;;;;;4953070;28;20050;-59
2021/12/25 02:44:28;;;;;;;5.32;2.72;;;;;;;;;;4953047;29;20031;-60
2021/12/25 02:46:58;;;;;;;6.20;2.47;;;;;;;;;;4953725;29;20112;-59
2021/12/25 02:49:24;;;;;;;5.68;2.40;;;;;;;;;;4953408;29;20019;-59
2021/12/25 02:51:52;;;;;;;5.00;2.75;;;;;;;;;;4953523;29;20487;-59
2021/12/25 02:54:18;;;;;;;6.85;2.40;;;;;;;;;;4953558;28;20035;-59
2021/12/25 02:56:44;;;;;;;6.28;2.83;;;;;;;;;;4953564;29;20101;-58
2021/12/25 02:59:15;;;;;;;5.93;2.53;;;;;;;;;;4953380;29;20049;-59
2021/12/25 03:01:41;;;;;;;8.30;3.00;;;;;;;;;;4954515;29;20024;-59
2021/12/25 03:04:10;;;;;;;6.32;2.60;;;;;;;;;;4955231;29;20034;-61
2021/12/25 03:06:38;;;;;;;5.35;2.65;;;;;;;;;;4953548;29;20050;-59
2021/12/25 03:09:05;;;;;;;4.90;3.00;;;;;;;;;;4952979;29;20035;-60
2021/12/25 03:11:31;;;;;;;4.97;2.65;;;;;;;;;;4952949;29;20330;-59
2021/12/25 03:14:03;;;;;;;5.97;3.30;;;;;;;;;;4953475;29;20019;-60
2021/12/25 03:16:29;;;;;;;6.68;2.90;;;;;;;;;;4953046;29;20168;-60
2021/12/25 03:18:58;;;;;;;4.93;2.50;;;;;;;;;;4952798;29;20047;-59
2021/12/25 03:21:24;;;;;;;6.78;2.78;;;;;;;;;;4953164;28;20027;-60
2021/12/25 03:23:52;;;;;;;6.65;2.65;;;;;;;;;;4953021;29;20028;-59
2021/12/25 03:26:18;;;;;;;6.10;2.90;;;;;;;;;;4952972;29;20038;-59
2021/12/25 03:28:45;;;;;;;4.40;2.60;;;;;;;;;;4953070;29;20108;-59
2021/12/25 03:31:18;;;;;;;6.47;2.65;;;;;;;;;;4952738;29;20027;-59
2021/12/25 03:33:46;;;;;;;5.22;2.30;;;;;;;;;;4952585;28;20138;-59
2021/12/25 03:36:12;;;;;;;4.97;2.40;;;;;;;;;;4952712;29;20380;-60
2021/12/25 03:38:39;;;;;;;4.35;2.30;;;;;;;;;;4952642;29;20051;-60
2021/12/25 03:41:06;;;;;;;5.30;2.20;;;;;;;;;;4952952;29;20027;-61
2021/12/25 03:43:34;;;;;;;3.50;2.05;;;;;;;;;;4952445;28;20019;-60
2021/12/25 03:46:00;;;;;;;4.60;2.30;;;;;;;;;;4952487;29;20042;-61
2021/12/25 03:59:01;;;;;;;3.70;1.92;;;;;;;;;;4957200;29;20057;-61
2021/12/25 04:04:11;;;;;;;3.78;1.95;;;;;;;;;;4956221;29;20391;-61
2021/12/25 04:06:51;;;;;;;6.35;2.22;;;;;;;;;;4957292;29;20379;-61
2021/12/25 04:09:37;;;;;;;4.30;1.95;;;;;;;;;;4956987;28;20027;-60
2021/12/25 04:12:05;;;;;;;3.45;1.70;;;;;;;;;;4956738;29;20023;-60
2021/12/25 04:14:32;;;;;;;3.42;1.85;;;;;;;;;;4956712;29;20031;-60
2021/12/25 04:16:58;;;;;;;3.83;1.83;;;;;;;;;;4956747;29;20086;-59
2021/12/25 04:19:24;;;;;;;2.85;1.55;;;;;;;;;;4956535;28;20035;-59
2021/12/25 04:21:55;;;;;;;4.25;1.90;;;;;;;;;;4956785;29;20034;-59
2021/12/25 04:24:22;;;;;;;4.38;1.67;;;;;;;;;;4956683;28;20030;-59
2021/12/25 04:26:49;;;;;;;3.40;2.13;;;;;;;;;;4956526;28;20027;-59
2021/12/25 05:04:21;;;;;;;4.10;1.77;;;;;;;;;;4955993;29;20031;-60
2021/12/25 05:06:48;;;;;;;;;;;;;;;;;;4955318;28;20094;-60
2021/12/25 05:09:14;;;;;;;2.72;1.55;;;;;;;;;;4955675;29;19907;-59
2021/12/25 05:11:40;;;;;;;3.15;1.60;;;;;;;;;;4955956;29;20087;-59
2021/12/25 05:14:06;;;;;;;3.97;1.50;;;;;;;;;;4938520;29;20442;-59
2021/12/25 05:16:32;;;;;;;2.05;1.20;;;;;;;;;;4955774;29;20031;-59
2021/12/25 05:18:58;;;;;;;3.05;1.50;;;;;;;;;;4955478;29;20035;-59
2021/12/25 05:21:24;;;;;;;4.28;1.70;;;;;;;;;;4955620;29;20035;-59
2021/12/25 05:23:51;;;;;;;3.67;1.52;;;;;;;;;;4955572;29;20031;-60
2021/12/25 05:26:17;;;;;;;3.13;1.55;;;;;;;;;;4955697;29;20023;-59
2021/12/25 05:28:46;;;;;;;2.90;1.70;;;;;;;;;;4955556;29;20475;-59
2021/12/25 05:31:13;;;;;;;2.42;1.42;;;;;;;;;;4955370;29;20028;-60
2021/12/25 05:33:39;;;;;;;3.00;1.58;;;;;;;;;;4955283;29;20050;-59
2021/12/25 05:36:06;;;;;;;4.10;1.60;;;;;;;;;;4955389;29;20418;-59
2021/12/25 05:38:33;;;;;;;3.75;1.70;;;;;;;;;;4955482;28;20050;-60
2021/12/25 05:41:00;;;;;;;2.97;1.73;;;;;;;;;;4955396;29;20118;-59
2021/12/25 05:43:26;;;;;;;3.45;2.00;;;;;;;;;;4955224;29;20090;-59
2021/12/25 05:45:52;;;;;;;5.82;2.30;;;;;;;;;;4955129;29;20035;-60
2021/12/25 05:48:18;;;;;;;4.75;2.20;;;;;;;;;;4938185;29;20114;-58
2021/12/25 05:50:44;;;;;;;4.05;1.95;;;;;;;;;;4954963;28;20107;-59
2021/12/25 05:53:10;;;;;;;4.82;2.60;;;;;;;;;;4954879;29;20075;-59
2021/12/25 05:55:36;;;;;;;4.93;2.50;;;;;;;;;;4955188;28;20039;-59
2021/12/25 05:58:04;;;;;;;4.25;2.20;;;;;;;;;;4954794;28;20098;-61
2021/12/25 06:00:31;;;;;;;6.45;3.30;;;;;;;;;;4954653;29;20039;-59
2021/12/25 06:02:57;;;;;;;8.35;2.90;;;;;;;;;;4954697;29;20027;-59
2021/12/25 06:05:24;;;;;;;6.28;2.88;;;;;;;;;;4954692;29;20175;-59
2021/12/25 06:07:50;;;;;;;4.30;2.30;;;;;;;;;;4954656;29;20027;-61
2021/12/25 06:10:17;;;;;;;5.00;2.88;;;;;;;;;;4954644;29;20468;-59
2021/12/25 06:12:44;;;;;;;5.00;2.83;;;;;;;;;;4936763;29;20043;-59
2021/12/25 06:15:12;;;;;;;6.78;2.50;;;;;;;;;;4954315;29;20106;-60
2021/12/25 06:17:38;;;;;;;6.80;2.40;;;;;;;;;;4954548;28;20042;-60
2021/12/25 06:20:05;;;;;;;5.60;2.35;;;;;;;;;;4954386;29;20167;-60
2021/12/25 06:22:31;;;;;;;6.57;2.30;;;;;;;;;;4954256;28;20046;-60
2021/12/25 06:24:57;;;;;;;7.60;2.88;;;;;;;;;;4954288;28;20054;-60
2021/12/25 06:27:23;;;;;;;6.10;2.70;;;;;;;;;;4954288;29;20027;-60
2021/12/25 06:29:50;;;;;;;8.32;3.28;;;;;;;;;;4954193;29;20498;-60
2021/12/25 06:32:16;;;;;;;5.97;2.90;;;;;;;;;;4954195;29;20046;-60
2021/12/25 06:34:42;;;;;;;5.05;2.42;;;;;;;;;;4954133;29;20495;-60
2021/12/25 06:37:08;;;;;;;5.70;2.70;;;;;;;;;;4954098;28;20031;-59
2021/12/25 06:39:35;;;;;;;6.93;2.90;;;;;;;;;;4953779;29;20098;-60
2021/12/25 06:42:01;;;;;;;8.77;3.22;;;;;;;;;;4954244;28;20423;-59
2021/12/25 06:44:27;;;;;;;6.82;2.70;;;;;;;;;;4953977;28;20031;-60
2021/12/25 06:46:54;;;;;;;8.57;2.90;;;;;;;;;;4953908;29;20530;-59
2021/12/25 06:49:21;;;;;;;7.55;3.38;;;;;;;;;;4954036;28;20031;-59
2021/12/25 06:51:47;;;;;;;6.28;3.20;;;;;;;;;;4954098;29;20090;-60
2021/12/25 06:54:13;;;;;;;6.82;3.35;;;;;;;;;;4953897;29;20114;-60
2021/12/25 06:56:40;;;;;;;7.43;3.80;;;;;;;;;;4953866;28;20069;-60
2021/12/25 06:59:06;;;;;;;9.32;3.90;;;;;;;;;;4953846;28;20043;-61
2021/12/25 07:01:32;;;;;;;7.72;3.60;;;;;;;;;;4953628;29;20391;-61
2021/12/25 07:03:58;;;;;;;11.30;5.63;;;;;;;;;;4953518;28;20122;-62
2021/12/25 07:06:24;;;;;;;15.50;8.32;;;;;;;;;;4953855;29;20475;-60
2021/12/25 07:08:50;;;;;;;8.18;4.43;;;;;;;;;;4952284;29;20038;-59
2021/12/25 07:11:18;;;;;;;10.35;5.25;;;;;;;;;;4940983;29;20035;-60
2021/12/25 07:13:46;;;;;;;11.45;6.85;;;;;;;;;;4944918;29;20024;-59
2021/12/25 07:16:12;;;;;;;8.65;5.43;;;;;;;;;;4947840;28;20034;-58
2021/12/25 07:18:38;;;;;;;9.05;4.80;;;;;;;;;;4953304;29;20126;-59
2021/12/25 07:21:05;;;;;;;9.50;4.40;;;;;;;;;;4953541;29;20398;-58
2021/12/25 07:23:32;;;;;;;9.18;4.95;;;;;;;;;;4953253;29;20019;-59
2021/12/25 07:25:58;;;;;;;9.68;5.25;;;;;;;;;;4952804;29;20455;-60
2021/12/25 07:28:24;;;;;;;8.50;4.82;;;;;;;;;;4952442;28;20490;-60
2021/12/25 07:30:50;;;;;;;9.50;5.15;;;;;;;;;;4935483;29;20042;-60
2021/12/25 07:33:17;;;;;;;10.43;5.72;;;;;;;;;;4952571;29;20035;-59
2021/12/25 07:35:43;;;;;;;9.65;5.05;;;;;;;;;;4953162;29;20396;-59
2021/12/25 07:38:09;;;;;;;10.23;5.05;;;;;;;;;;4952904;29;20482;-58
2021/12/25 07:40:36;;;;;;;8.57;4.90;;;;;;;;;;4952602;28;20643;-61
2021/12/25 07:43:02;;;;;;;10.10;4.88;;;;;;;;;;4952543;29;20380;-59
2021/12/25 07:45:28;;;;;;;13.65;4.90;;;;;;;;;;4944742;29;20125;-60
2021/12/25 07:48:00;;;;;;;8.45;4.88;;;;;;;;;;4925420;29;20040;-60
2021/12/25 07:50:28;;;;;;;12.60;5.63;;;;;;;;;;4920396;29;20060;-57
2021/12/25 07:52:54;;;;;;;10.02;4.88;;;;;;;;;;4940475;29;20485;-59
2021/12/25 07:55:20;;;;;;;9.75;5.05;;;;;;;;;;4943006;29;20438;-59
2021/12/25 07:57:46;;;;;;;13.02;6.20;;;;;;;;;;4941957;29;20023;-58
2021/12/25 08:00:13;;;;;;;14.23;7.55;;;;;;;;;;4941352;29;20118;-59
2021/12/25 08:02:40;;;;;;;17.52;8.07;;;;;;;;;;4939540;29;20102;-59
2021/12/25 08:05:06;;;;;;;12.38;6.72;;;;;;;;;;4943256;29;20826;-60
2021/12/25 08:07:32;;;;;;;74.22;37.47;;;;;;;;;;4941338;29;20063;-61
2021/12/25 08:10:11;;;;;;;84.63;40.25;;;;;;;;;;4943459;29;20035;-60
2021/12/25 08:12:37;;;;;;;52.80;29.75;;;;;;;;;;4942391;29;20386;-60
2021/12/25 08:15:03;;;;;;;25.50;13.43;;;;;;;;;;4933056;29;20038;-60
2021/12/25 08:17:29;;;;;;;13.00;7.50;;;;;;;;;;4933649;29;20472;-60
2021/12/25 08:19:56;;;;;;;13.25;6.90;;;;;;;;;;4915926;29;20085;-60
2021/12/25 08:22:22;;;;;;;12.90;7.22;;;;;;;;;;4933243;29;20641;-62
2021/12/25 08:24:51;;;;;;;12.25;7.13;;;;;;;;;;4933607;29;20028;-60
2021/12/25 08:27:17;;;;;;;14.48;7.20;;;;;;;;;;4933870;29;20472;-60
2021/12/25 08:29:43;;;;;;;14.82;8.30;;;;;;;;;;4933733;29;20083;-60
2021/12/25 08:32:09;;;;;;;13.93;7.63;;;;;;;;;;4933282;29;20072;-62
2021/12/25 08:34:37;;;;;;;16.92;8.60;;;;;;;;;;4941340;29;20055;-61
2021/12/25 08:37:04;;;;;;;17.98;10.02;;;;;;;;;;4940791;29;20558;-60
2021/12/25 08:39:30;;;;;;;26.40;12.13;;;;;;;;;;4943148;28;20047;-59
2021/12/25 08:42:01;;;;;;;19.17;10.85;;;;;;;;;;4944500;29;20050;-62
2021/12/25 08:44:34;;;;;;;74.38;38.13;;;;;;;;;;4939356;29;20055;-59
2021/12/25 08:47:04;;;;;;;48.40;24.52;;;;;;;;;;4936878;29;20039;-60
2021/12/25 08:49:31;;;;;;;99.10;53.25;;;;;;;;;;4936784;29;20031;-59
2021/12/25 08:51:59;;;;;;;21.52;13.18;;;;;;;;;;4936766;29;20036;-60
2021/12/25 08:54:25;;;;;;;16.88;10.20;;;;;;;;;;4936467;29;20036;-61
2021/12/25 08:56:51;;;;;;;20.05;10.73;;;;;;;;;;4936400;29;20453;-59
2021/12/25 08:59:17;;;;;;;19.00;10.25;;;;;;;;;;4936802;29;20098;-60
2021/12/25 09:01:43;;;;;;;18.17;10.20;;;;;;;;;;4936735;29;20024;-61
2021/12/25 09:04:09;;;;;;;113.50;62.22;;;;;;;;;;4936770;29;20115;-59
2021/12/25 09:06:37;;;;;;;22.83;12.05;;;;;;;;;;4936479;29;20042;-59
2021/12/25 09:09:05;;;;;;;18.70;10.90;;;;;;;;;;4936743;29;20059;-60
2021/12/25 09:11:31;;;;;;;29.67;14.93;;;;;;;;;;4936656;29;20074;-60
2021/12/25 09:13:57;;;;;;;25.80;13.23;;;;;;;;;;4936414;29;20099;-60
2021/12/25 09:16:23;;;;;;;34.72;17.67;;;;;;;;;;4937669;29;20043;-59
2021/12/25 09:18:49;;;;;;;25.90;14.23;;;;;;;;;;4950540;28;20032;-59
2021/12/25 09:21:15;;;;;;;27.45;15.10;;;;;;;;;;4939644;29;20036;-60
2021/12/25 09:23:42;;;;;;;29.13;16.20;;;;;;;;;;4939769;29;20030;-59
2021/12/25 09:26:08;;;;;;;27.55;15.05;;;;;;;;;;4945204;29;20554;-61
2021/12/25 09:28:34;;;;;;;23.00;14.25;;;;;;;;;;4947536;29;20083;-60
2021/12/25 09:31:00;;;;;;;25.00;16.20;;;;;;;;;;4936979;29;20032;-60
2021/12/25 09:33:26;;;;;;;21.88;11.93;;;;;;;;;;4936780;28;20567;-60
2021/12/25 09:35:53;;;;;;;19.40;10.35;;;;;;;;;;4936053;29;20096;-61
2021/12/25 09:38:19;;;;;;;24.63;16.13;;;;;;;;;;4936158;29;20031;-58
2021/12/25 09:40:45;;;;;;;22.45;13.95;;;;;;;;;;4940825;28;20057;-60
2021/12/25 09:43:13;;;;;;;27.30;16.67;;;;;;;;;;4944794;29;20024;-60
2021/12/25 09:45:39;;;;;;;22.88;13.93;;;;;;;;;;4943530;29;20035;-62
2021/12/25 09:48:05;;;;;;;15.77;9.07;;;;;;;;;;4943145;29;20063;-59
2021/12/25 09:50:31;;;;;;;14.00;8.57;;;;;;;;;;4942899;29;20106;-60
2021/12/25 09:52:57;;;;;;;15.55;9.88;;;;;;;;;;4942443;28;20118;-60
2021/12/25 09:55:24;;;;;;;16.42;9.82;;;;;;;;;;4944870;29;20103;-61
2021/12/25 09:57:50;;;;;;;13.82;8.48;;;;;;;;;;4944388;29;20082;-59
2021/12/25 10:00:18;;;;;;;17.27;10.50;;;;;;;;;;4944815;29;20035;-60
2021/12/25 10:02:46;;;;;;;17.27;9.63;;;;;;;;;;4944434;29;20030;-59
2021/12/25 10:05:12;;;;;;;13.60;8.05;;;;;;;;;;4942669;29;20099;-59
2021/12/25 10:07:40;;;;;;;16.35;10.23;;;;;;;;;;4934961;29;20028;-60
2021/12/25 10:10:06;;;;;;;14.32;9.00;;;;;;;;;;4935584;29;20026;-60
2021/12/25 10:12:42;;;;;;;16.85;9.05;;;;;;;;;;4935166;29;20028;-62
2021/12/25 10:15:16;;;;;;;16.80;8.90;;;;;;;;;;4940316;28;20514;-61
2021/12/25 10:17:44;;;;;;;18.50;9.75;;;;;;;;;;4935370;29;20472;-60
2021/12/25 10:20:13;;;;;;;12.07;7.57;;;;;;;;;;4918127;29;20407;-61
2021/12/25 10:22:58;;;;;;;12.77;7.00;;;;;;;;;;4935175;29;20038;-60
2021/12/25 10:25:25;;;;;;;14.40;6.88;;;;;;;;;;4935013;29;20019;-60
2021/12/25 10:27:56;;;;;;;12.52;6.72;;;;;;;;;;4935054;29;20890;-60
2021/12/25 10:30:22;;;;;;;12.97;5.23;;;;;;;;;;4942585;29;20059;-61
2021/12/25 10:32:48;;;;;;;11.15;6.05;;;;;;;;;;4943878;29;20456;-61
2021/12/25 10:35:15;;;;;;;9.10;5.65;;;;;;;;;;4940137;29;20037;-62
2021/12/25 10:37:41;;;;;;;10.70;5.93;;;;;;;;;;4925274;29;20039;-62
2021/12/25 10:40:18;;;;;;;11.40;5.60;;;;;;;;;;4943071;29;20126;-62
2021/12/25 10:42:45;;;;;;;11.05;5.35;;;;;;;;;;4938853;29;20059;-61
2021/12/25 10:45:14;;;;;;;12.38;6.05;;;;;;;;;;4938359;29;20024;-61
2021/12/25 10:47:41;;;;;;;11.90;6.32;;;;;;;;;;4934343;29;20035;-61
2021/12/25 10:50:11;;;;;;;12.93;5.85;;;;;;;;;;4934541;29;20079;-62
2021/12/25 10:52:44;;;;;;;11.23;5.43;;;;;;;;;;4941730;29;20043;-60
2021/12/25 10:55:21;;;;;;;11.68;5.63;;;;;;;;;;4953584;29;20086;-60
2021/12/25 10:57:59;;;;;;;11.48;5.35;;;;;;;;;;4952521;29;20031;-61
2021/12/25 11:00:30;;;;;;;11.02;5.78;;;;;;;;;;4938121;29;20110;-62
2021/12/25 11:03:00;;;;;;;9.23;5.95;;;;;;;;;;4938400;29;20028;-62
2021/12/25 11:05:27;;;;;;;13.18;6.90;;;;;;;;;;4939350;29;20118;-62
2021/12/25 11:08:12;;;;;;;11.05;5.68;;;;;;;;;;4933674;29;20024;-63
2021/12/25 11:10:41;;;;;;;10.20;5.85;;;;;;;;;;4916668;29;20031;-63
2021/12/25 11:13:16;;;;;;;12.82;5.60;;;;;;;;;;4934028;29;20480;-62
2021/12/25 11:15:42;;;;;;;13.82;5.93;;;;;;;;;;4933858;29;20479;-63
2021/12/25 11:18:09;;;;;;;11.55;6.25;;;;;;;;;;4934033;29;20512;-64
2021/12/25 11:20:37;;;;;;;13.15;7.10;;;;;;;;;;4933760;29;20031;-61
2021/12/25 11:23:04;;;;;;;12.50;6.07;;;;;;;;;;4933577;29;20020;-61
2021/12/25 11:25:31;;;;;;;12.90;6.97;;;;;;;;;;4933565;29;20107;-60
2021/12/25 11:27:58;;;;;;;11.73;6.13;;;;;;;;;;4933706;29;20024;-60
2021/12/25 11:30:27;;;;;;;14.50;7.38;;;;;;;;;;4933519;29;20070;-61
2021/12/25 11:32:53;;;;;;;13.80;7.85;;;;;;;;;;4933044;29;20030;-61
2021/12/25 11:35:19;;;;;;;17.58;8.02;;;;;;;;;;4933751;29;20091;-61
2021/12/25 11:37:47;;;;;;;19.70;9.85;;;;;;;;;;4933272;29;20126;-61
2021/12/25 11:40:14;;;;;;;16.67;8.73;;;;;;;;;;4933573;29;20109;-60
2021/12/25 11:42:41;;;;;;;19.83;10.45;;;;;;;;;;4933807;29;20027;-60
2021/12/25 11:45:12;;;;;;;18.23;9.68;;;;;;;;;;4933646;29;20028;-60
2021/12/25 11:47:39;;;;;;;21.85;10.80;;;;;;;;;;4933199;29;20502;-60
2021/12/25 11:50:11;;;;;;;19.52;9.88;;;;;;;;;;4933543;29;20035;-61
2021/12/25 11:52:50;;;;;;;18.20;9.98;;;;;;;;;;4936160;29;20046;-60
2021/12/25 11:55:49;;;;;;;16.75;9.90;;;;;;;;;;4940989;29;20483;-61
2021/12/25 11:58:40;;;;;;;21.77;12.57;;;;;;;;;;4952824;29;20048;-61
2021/12/25 12:01:16;;;;;;;19.98;10.77;;;;;;;;;;4952495;29;20479;-61
2021/12/25 12:03:44;;;;;;;17.10;9.45;;;;;;;;;;4934984;29;20024;-61
2021/12/25 12:06:13;;;;;;;17.38;9.45;;;;;;;;;;4952154;29;20041;-61
2021/12/25 12:08:54;;;;;;;21.50;9.35;;;;;;;;;;4952281;29;20566;-62
2021/12/25 12:11:25;;;;;;;20.70;9.50;;;;;;;;;;4952592;29;20031;-61
2021/12/25 12:14:09;;;;;;;19.30;8.57;;;;;;;;;;4952315;29;20485;-60
2021/12/25 12:16:37;;;;;;;16.60;9.02;;;;;;;;;;4941256;29;20027;-61
2021/12/25 12:19:03;;;;;;;14.50;8.00;;;;;;;;;;4955453;29;20039;-61
2021/12/25 12:21:38;;;;;;;14.77;8.52;;;;;;;;;;4955757;29;20498;-62
2021/12/25 12:24:43;;;;;;;15.98;9.40;;;;;;;;;;4956117;29;20356;-62
2021/12/25 12:27:09;;;;;;;13.25;7.38;;;;;;;;;;4956102;29;20036;-62
2021/12/25 12:29:41;;;;;;;12.80;7.05;;;;;;;;;;4955849;29;20479;-60
2021/12/25 12:32:08;;;;;;;14.93;7.75;;;;;;;;;;4955912;29;20106;-59
2021/12/25 12:34:35;;;;;;;14.35;7.35;;;;;;;;;;4955749;29;20067;-60
2021/12/25 12:37:16;;;;;;;18.05;8.18;;;;;;;;;;4955896;29;20038;-60
2021/12/25 12:40:07;;;;;;;16.75;7.95;;;;;;;;;;4955702;29;20488;-63
2021/12/25 12:42:43;;;;;;;20.33;9.80;;;;;;;;;;4955984;29;20031;-59
2021/12/25 12:45:11;;;;;;;21.02;10.20;;;;;;;;;;4955872;29;20059;-59
2021/12/25 12:47:37;;;;;;;21.70;10.93;;;;;;;;;;4955118;29;20035;-62
2021/12/25 12:50:03;;;;;;;18.55;10.43;;;;;;;;;;4955829;29;20034;-60
2021/12/25 12:52:38;;;;;;;23.13;11.40;;;;;;;;;;4955627;28;20494;-60
2021/12/25 12:55:23;;;;;;;23.20;10.63;;;;;;;;;;4955632;29;20118;-60
2021/12/25 12:58:14;;;;;;;20.42;11.75;;;;;;;;;;4955777;29;20074;-60
2021/12/25 13:00:58;;;;;;;24.75;13.13;;;;;;;;;;4956020;29;20035;-60
2021/12/25 13:03:46;;;;;;;29.73;15.73;;;;;;;;;;4954277;29;20038;-60
2021/12/25 13:06:20;;;;;;;29.42;15.40;;;;;;;;;;5339794;23;20514;-61
2021/12/25 13:08:47;;;;;;;29.73;14.90;;;;;;;;;;4876706;29;20053;-59
2021/12/25 13:11:21;;;;;;;27.67;14.80;;;;;;;;;;4863100;29;20425;-62
2021/12/25 13:14:20;;;;;;;25.00;14.82;;;;;;;;;;4879391;29;20031;-60
2021/12/25 13:16:43;;;;;;;25.02;13.40;;;;;;;;;;4877571;29;20096;-60
2021/12/25 13:19:09;;;;;;;34.72;18.75;;;;;;;;;;4879774;29;20021;-60
2021/12/25 13:21:36;;;;;;;27.25;14.65;;;;;;;;;;4879391;29;20041;-59
2021/12/25 13:24:14;;;;;;;24.45;13.38;;;;;;;;;;4862595;29;20040;-61
2021/12/25 13:26:45;;;;;;;24.00;13.05;;;;;;;;;;4877623;29;20041;-62
2021/12/25 13:29:14;;;;;;;25.15;11.85;;;;;;;;;;4878132;29;20469;-59
2021/12/25 13:31:41;;;;;;;29.27;11.63;;;;;;;;;;4875977;29;20052;-61
2021/12/25 13:34:15;;;;;;;22.40;11.40;;;;;;;;;;4878740;29;20035;-60
2021/12/25 13:36:45;;;;;;;23.98;12.00;;;;;;;;;;4877570;29;20044;-59
2021/12/25 13:39:13;;;;;;;22.65;11.63;;;;;;;;;;4878535;29;20136;-60
2021/12/25 13:41:46;;;;;;;25.08;12.90;;;;;;;;;;4877707;29;20040;-60
2021/12/25 13:44:12;;;;;;;28.65;15.35;;;;;;;;;;4876472;29;20036;-60
2021/12/25 13:46:48;;;;;;;27.17;15.15;;;;;;;;;;4877845;29;20033;-60
2021/12/25 13:49:33;;;;;;;26.20;14.43;;;;;;;;;;4874898;29;20032;-58
2021/12/25 13:52:00;;;;;;;35.25;21.15;;;;;;;;;;4875919;29;20017;-58
2021/12/25 13:54:26;;;;;;;38.65;21.77;;;;;;;;;;4877411;29;20052;-59
2021/12/25 13:56:54;;;;;;;31.60;18.20;;;;;;;;;;4875275;29;20443;-59
2021/12/25 13:59:20;;;;;;;29.55;15.00;;;;;;;;;;4877440;29;20033;-59
2021/12/25 14:01:54;;;;;;;23.25;11.82;;;;;;;;;;4878387;29;20477;-59
2021/12/25 14:04:20;;;;;;;25.30;13.35;;;;;;;;;;4877571;29;20048;-59
2021/12/25 14:06:46;;;;;;;24.15;12.98;;;;;;;;;;4877711;29;20571;-58
2021/12/25 14:09:13;;;;;;;32.38;16.13;;;;;;;;;;4880281;29;20051;-59
2021/12/25 14:11:39;;;;;;;31.10;17.48;;;;;;;;;;4878550;29;20112;-59
2021/12/25 14:14:06;;;;;;;29.35;16.08;;;;;;;;;;4877515;29;20025;-59
2021/12/25 14:16:32;;;;;;;27.38;15.00;;;;;;;;;;4877816;29;20088;-59
2021/12/25 14:18:58;;;;;;;27.40;13.88;;;;;;;;;;4878695;29;20025;-59
2021/12/25 14:21:25;;;;;;;27.55;14.77;;;;;;;;;;4878157;29;20041;-59
2021/12/25 14:24:15;;;;;;;29.17;14.57;;;;;;;;;;4877190;29;20493;-58
2021/12/25 14:26:41;;;;;;;31.23;17.88;;;;;;;;;;4878264;29;20033;-59
2021/12/25 14:29:19;;;;;;;35.08;20.02;;;;;;;;;;4877943;29;20033;-59
2021/12/25 14:31:45;;;;;;;49.42;24.38;;;;;;;;;;4864572;29;20049;-59
2021/12/25 14:34:12;;;;;;;44.28;21.48;;;;;;;;;;4877941;29;20051;-59
2021/12/25 14:36:40;;;;;;;41.63;22.23;;;;;;;;;;4877615;29;20041;-60
2021/12/25 14:39:06;;;;;;;42.15;23.33;;;;;;;;;;4875548;29;20029;-58
2021/12/25 14:41:34;;;;;;;45.67;24.00;;;;;;;;;;4874178;29;20040;-60
2021/12/25 14:44:01;;;;;;;44.40;23.58;;;;;;;;;;4876768;29;20493;-59
2021/12/25 14:46:27;;;;;;;43.35;22.77;;;;;;;;;;4877931;29;20108;-59
2021/12/25 14:48:55;;;;;;;43.78;23.15;;;;;;;;;;4878169;29;20029;-61
2021/12/25 14:51:22;;;;;;;49.10;23.55;;;;;;;;;;4877932;29;20381;-61
2021/12/25 14:53:48;;;;;;;43.92;22.98;;;;;;;;;;4877597;29;20112;-58
2021/12/25 14:56:24;;;;;;;40.70;21.55;;;;;;;;;;4878208;29;20374;-59
2021/12/25 14:58:51;;;;;;;38.35;20.40;;;;;;;;;;4877914;29;20442;-58
2021/12/25 15:01:19;;;;;;;41.03;20.92;;;;;;;;;;4877680;29;20045;-58
2021/12/25 15:03:59;;;;;;;32.13;18.33;;;;;;;;;;4877590;29;20021;-60
2021/12/25 15:06:25;;;;;;;30.38;17.23;;;;;;;;;;4876913;29;20041;-59
2021/12/25 15:09:00;;;;;;;35.22;18.23;;;;;;;;;;4876780;29;20049;-60
2021/12/25 15:11:30;;;;;;;29.60;16.65;;;;;;;;;;4877504;29;20029;-61
2021/12/25 15:13:58;;;;;;;29.73;15.68;;;;;;;;;;4877641;29;20338;-60
2021/12/25 15:16:45;;;;;;;26.50;15.15;;;;;;;;;;4877449;29;20044;-60
2021/12/25 15:19:21;;;;;;;31.83;16.45;;;;;;;;;;4877610;29;20102;-61
2021/12/25 15:21:47;;;;;;;29.83;16.70;;;;;;;;;;4877431;29;20512;-62
2021/12/25 15:24:16;;;;;;;35.90;20.35;;;;;;;;;;4877214;29;20033;-62
2021/12/25 15:27:02;;;;;;;34.40;20.33;;;;;;;;;;4877447;29;20056;-61
2021/12/25 15:29:34;;;;;;;35.78;20.23;;;;;;;;;;4877092;29;20044;-61
2021/12/25 15:32:04;;;;;;;34.35;18.83;;;;;;;;;;4877042;29;20040;-62
2021/12/25 15:34:30;;;;;;;39.47;21.60;;;;;;;;;;4877417;29;20112;-62
2021/12/25 15:36:56;;;;;;;36.33;20.58;;;;;;;;;;4876810;29;20394;-62
2021/12/25 15:39:24;;;;;;;36.05;17.92;;;;;;;;;;4876878;29;20041;-62
2021/12/25 15:41:52;;;;;;;31.85;16.95;;;;;;;;;;4875883;29;20052;-62
2021/12/25 15:44:21;;;;;;;30.13;17.15;;;;;;;;;;4877146;29;20500;-61
2021/12/25 15:46:48;;;;;;;30.80;16.15;;;;;;;;;;4877026;29;20037;-63
2021/12/25 15:49:14;;;;;;;31.15;17.35;;;;;;;;;;4876635;29;20025;-62